createdAt,value
2024-02-15T00:04:04.865Z,19.01
2024-02-15T00:09:07.043Z,19.01
2024-02-15T00:14:09.445Z,19.01
2024-02-15T00:19:11.956Z,19.03
2024-02-15T00:24:14.140Z,19.02
2024-02-15T00:29:16.472Z,19.01
2024-02-15T00:34:18.967Z,19.04
2024-02-15T00:39:21.555Z,19.02
2024-02-15T00:44:23.659Z,19.03
2024-02-15T00:49:29.467Z,19.00
2024-02-15T00:54:31.913Z,19.02
2024-02-15T00:59:37.518Z,19.05
2024-02-15T01:04:39.552Z,19.02
2024-02-15T01:09:41.778Z,19.04
2024-02-15T01:14:45.197Z,19.01
2024-02-15T01:19:47.306Z,18.96
2024-02-15T01:24:49.404Z,19.04
2024-02-15T01:29:51.473Z,19.01
2024-02-15T01:34:55.974Z,19.04
2024-02-15T01:39:58.226Z,19.04
2024-02-15T01:45:00.420Z,19.00
2024-02-15T01:50:02.539Z,19.03
2024-02-15T01:55:09.456Z,19.06
2024-02-15T02:00:14.283Z,19.04
2024-02-15T02:05:16.364Z,19.05
2024-02-15T02:10:19.870Z,19.05
2024-02-15T02:15:22.030Z,19.03
2024-02-15T02:20:24.935Z,19.07
2024-02-15T02:25:30.050Z,19.04
2024-02-15T02:30:32.233Z,19.02
2024-02-15T02:35:34.769Z,18.98
2024-02-15T02:40:37.501Z,18.98
2024-02-15T02:45:39.620Z,19.05
2024-02-15T02:50:41.810Z,19.06
2024-02-15T02:55:44.077Z,19.04
2024-02-15T03:00:46.284Z,19.07
2024-02-15T03:05:48.454Z,19.08
2024-02-15T03:10:50.774Z,19.04
2024-02-15T03:15:52.831Z,19.05
2024-02-15T03:20:55.007Z,19.06
2024-02-15T03:25:57.246Z,19.07
2024-02-15T03:31:01.961Z,19.06
2024-02-15T03:36:04.511Z,19.06
2024-02-15T03:41:07.162Z,19.06
2024-02-15T03:46:13.773Z,19.05
2024-02-15T03:51:24.735Z,19.08
2024-02-15T03:56:26.676Z,19.05
2024-02-15T04:01:28.672Z,19.08
2024-02-15T04:06:33.363Z,19.02
2024-02-15T04:11:35.602Z,19.08
2024-02-15T04:16:39.359Z,19.08
2024-02-15T04:21:41.621Z,19.07
2024-02-15T04:26:43.733Z,19.11
2024-02-15T04:31:45.683Z,19.08
2024-02-15T04:36:52.370Z,19.07
2024-02-15T04:41:55.052Z,19.08
2024-02-15T04:46:58.817Z,19.05
2024-02-15T04:52:03.821Z,19.06
2024-02-15T04:57:08.385Z,19.07
2024-02-15T05:02:11.328Z,19.12
2024-02-15T05:07:16.829Z,19.10
2024-02-15T05:12:31.193Z,19.09
2024-02-15T05:17:35.380Z,19.08
2024-02-15T05:22:38.064Z,19.04
2024-02-15T05:27:40.070Z,19.09
2024-02-15T05:32:47.105Z,19.09
2024-02-15T05:37:49.173Z,19.11
2024-02-15T05:42:57.406Z,19.07
2024-02-15T05:48:00.281Z,19.07
2024-02-15T05:53:03.110Z,19.07
2024-02-15T05:58:05.490Z,19.10
2024-02-15T06:03:07.891Z,19.08
2024-02-15T06:08:10.295Z,19.10
2024-02-15T06:13:12.405Z,19.06
2024-02-15T06:18:15.863Z,19.07
2024-02-15T06:23:19.677Z,19.10
2024-02-15T06:28:41.189Z,19.13
2024-02-15T06:34:02.550Z,19.11
2024-02-15T06:39:23.382Z,19.12
2024-02-15T06:44:25.599Z,19.13
2024-02-15T06:49:27.661Z,19.11
2024-02-15T06:54:30.279Z,19.12
2024-02-15T06:59:33.382Z,19.08
2024-02-15T07:04:35.664Z,19.08
2024-02-15T07:09:38.049Z,19.08
2024-02-15T07:14:40.383Z,19.10
2024-02-15T07:19:46.368Z,19.18
2024-02-15T07:24:48.368Z,19.08
2024-02-15T07:29:50.501Z,19.09
2024-02-15T07:34:52.907Z,19.06
2024-02-15T07:39:55.043Z,19.12
2024-02-15T07:44:57.005Z,19.10
2024-02-15T07:49:59.952Z,19.14
2024-02-15T07:55:03.176Z,19.09
2024-02-15T08:00:11.707Z,19.13
2024-02-15T08:05:15.873Z,19.14
2024-02-15T08:10:18.168Z,19.09
2024-02-15T08:15:20.189Z,19.14
2024-02-15T08:20:25.314Z,19.11
2024-02-15T08:25:27.305Z,19.13
2024-02-15T08:30:29.249Z,19.10
2024-02-15T08:35:31.340Z,19.12
2024-02-15T08:40:33.397Z,19.09
2024-02-15T08:45:36.901Z,19.10
2024-02-15T08:50:38.927Z,19.09
2024-02-15T08:55:41.078Z,19.11
2024-02-15T09:00:46.201Z,19.09
2024-02-15T09:05:48.325Z,19.11
2024-02-15T09:10:54.247Z,19.12
2024-02-15T09:15:56.517Z,19.15
2024-02-15T09:20:58.554Z,19.10
2024-02-15T09:26:00.772Z,19.08
2024-02-15T09:31:03.060Z,19.05
2024-02-15T09:36:05.640Z,19.10
2024-02-15T09:41:09.214Z,19.12
2024-02-15T09:46:11.612Z,19.14
2024-02-15T09:51:14.470Z,19.06
2024-02-15T09:56:16.879Z,19.16
2024-02-15T10:01:23.413Z,19.16
2024-02-15T10:06:25.611Z,19.16
2024-02-15T10:11:27.797Z,19.23
2024-02-15T10:16:30.640Z,19.25
2024-02-15T10:21:34.955Z,19.22
2024-02-15T10:26:37.697Z,19.23
2024-02-15T10:31:42.982Z,19.18
2024-02-15T10:36:45.090Z,19.11
2024-02-15T10:41:54.691Z,19.22
2024-02-15T10:46:56.743Z,19.27
2024-02-15T10:52:05.667Z,19.28
2024-02-15T10:57:09.602Z,19.24
2024-02-15T11:02:36.185Z,19.23
2024-02-15T11:07:38.705Z,19.17
2024-02-15T11:12:42.979Z,19.17
2024-02-15T11:17:50.654Z,19.00
2024-02-15T11:22:58.888Z,19.20
2024-02-15T11:28:29.306Z,19.25
2024-02-15T11:33:32.214Z,19.32
2024-02-15T11:38:37.961Z,19.30
2024-02-15T11:44:06.134Z,19.26
2024-02-15T11:49:08.943Z,19.30
2024-02-15T11:54:13.425Z,18.93
2024-02-15T11:59:30.967Z,19.16
2024-02-15T12:04:52.001Z,19.25
2024-02-15T12:10:19.090Z,19.29
2024-02-15T12:15:39.650Z,19.28
2024-02-15T12:20:41.803Z,19.30
2024-02-15T12:25:43.859Z,19.27
2024-02-15T12:30:46.096Z,19.28
2024-02-15T12:35:48.343Z,19.32
2024-02-15T12:40:51.428Z,19.32
2024-02-15T12:45:53.668Z,19.22
2024-02-15T12:50:56.358Z,19.26
2024-02-15T12:55:58.547Z,19.32
2024-02-15T13:01:01.750Z,19.29
2024-02-15T13:06:04.225Z,19.30
2024-02-15T13:11:06.455Z,19.35
2024-02-15T13:16:09.045Z,19.29
2024-02-15T13:21:11.873Z,19.32
2024-02-15T13:26:14.846Z,19.31
2024-02-15T13:31:17.026Z,19.29
2024-02-15T13:36:19.016Z,19.32
2024-02-15T13:41:21.141Z,19.33
2024-02-15T13:46:23.315Z,19.33
2024-02-15T13:51:26.105Z,19.32
2024-02-15T13:56:28.650Z,19.29
2024-02-15T14:01:30.578Z,19.36
2024-02-15T14:06:32.686Z,19.30
2024-02-15T14:11:35.025Z,19.32
2024-02-15T14:16:36.984Z,19.32
2024-02-15T14:21:40.163Z,19.34
2024-02-15T14:26:45.363Z,19.05
2024-02-15T14:32:06.086Z,19.00
2024-02-15T14:37:08.422Z,18.96
2024-02-15T14:47:19.565Z,19.07
2024-02-15T14:52:21.764Z,19.11
2024-02-15T14:57:27.731Z,19.22
2024-02-15T15:02:31.885Z,19.25
2024-02-15T15:07:52.446Z,19.03
2024-02-15T15:12:54.546Z,19.26
2024-02-15T15:17:57.313Z,19.33
2024-02-15T15:23:01.849Z,19.37
2024-02-15T15:28:08.737Z,19.36
2024-02-15T15:33:10.767Z,19.39
2024-02-15T15:38:13.092Z,19.36
2024-02-15T15:43:15.550Z,19.37
2024-02-15T15:48:17.648Z,18.89
2024-02-15T15:53:20.994Z,18.87
2024-02-15T15:58:25.464Z,18.87
2024-02-15T16:03:28.674Z,18.84
2024-02-15T16:08:30.754Z,18.81
2024-02-15T16:13:32.773Z,18.85
2024-02-15T16:18:34.838Z,18.93
2024-02-15T16:23:36.999Z,19.00
2024-02-15T16:28:46.855Z,19.02
2024-02-15T16:33:49.698Z,19.10
2024-02-15T16:38:52.068Z,18.98
2024-02-15T16:43:58.203Z,18.93
2024-02-15T16:49:00.724Z,18.95
2024-02-15T16:54:06.568Z,19.20
2024-02-15T16:59:08.867Z,19.28
2024-02-15T17:04:11.097Z,19.15
2024-02-15T17:09:13.409Z,19.17
2024-02-15T17:14:15.920Z,19.10
2024-02-15T17:19:18.235Z,19.05
2024-02-15T17:24:20.657Z,19.17
2024-02-15T17:29:22.708Z,18.96
2024-02-15T17:34:25.563Z,18.93
2024-02-15T17:39:27.713Z,19.17
2024-02-15T17:44:29.700Z,19.19
2024-02-15T17:49:32.174Z,19.19
2024-02-15T17:54:34.208Z,19.22
2024-02-15T17:59:36.302Z,19.13
2024-02-15T18:04:38.619Z,18.89
2024-02-15T18:09:40.753Z,18.91
2024-02-15T18:14:43.934Z,19.10
2024-02-15T18:19:46.269Z,19.28
2024-02-15T18:24:48.282Z,19.06
2024-02-15T18:29:50.168Z,19.04
2024-02-15T18:34:52.141Z,19.19
2024-02-15T18:39:54.131Z,19.31
2024-02-15T18:44:56.183Z,19.27
2024-02-15T18:50:00.454Z,19.21
2024-02-15T18:55:02.978Z,19.37
2024-02-15T19:00:15.992Z,19.27
2024-02-15T19:05:29.916Z,19.28
2024-02-15T19:10:33.492Z,19.09
2024-02-15T19:15:35.508Z,19.08
2024-02-15T19:20:37.507Z,19.33
2024-02-15T19:25:39.642Z,19.22
2024-02-15T19:30:43.381Z,19.23
2024-02-15T19:35:46.460Z,19.17
2024-02-15T19:40:48.435Z,19.21
2024-02-15T19:45:50.356Z,19.12
2024-02-15T19:50:52.601Z,19.14
2024-02-15T19:55:54.538Z,18.97
2024-02-15T20:00:56.629Z,18.97
2024-02-15T20:06:00.320Z,19.13
2024-02-15T20:11:02.554Z,19.04
2024-02-15T20:16:05.797Z,18.91
2024-02-15T20:21:11.635Z,18.96
2024-02-15T20:26:14.412Z,18.95
2024-02-15T20:31:18.729Z,18.89
2024-02-15T20:36:21.711Z,18.96
2024-02-15T20:41:28.220Z,18.97
2024-02-15T20:46:31.155Z,19.05
2024-02-15T20:51:36.874Z,19.06
2024-02-15T20:56:40.357Z,19.04
2024-02-15T21:01:42.641Z,19.03
2024-02-15T21:06:44.882Z,19.02
2024-02-15T21:11:47.549Z,19.14
2024-02-15T21:16:49.751Z,19.12
2024-02-15T21:21:51.815Z,19.17
2024-02-15T21:26:54.170Z,19.11
2024-02-15T21:31:56.472Z,19.14
2024-02-15T21:36:58.820Z,19.19
2024-02-15T21:42:01.083Z,19.20
2024-02-15T21:47:04.062Z,19.27
2024-02-15T21:52:06.389Z,19.25
2024-02-15T21:57:08.591Z,19.19
2024-02-15T22:02:31.232Z,19.20
2024-02-15T22:07:33.799Z,19.21
2024-02-15T22:12:35.809Z,19.20
2024-02-15T22:17:38.929Z,19.11
2024-02-15T22:22:42.034Z,19.05
2024-02-15T22:27:44.780Z,19.06
2024-02-15T22:32:47.070Z,19.08
2024-02-15T22:37:49.246Z,19.06
2024-02-15T22:42:51.185Z,19.19
2024-02-15T22:47:53.473Z,19.16
2024-02-15T22:52:55.708Z,19.18
2024-02-15T22:57:57.793Z,19.25
2024-02-15T23:02:59.954Z,19.30
2024-02-15T23:08:02.495Z,19.35
2024-02-15T23:13:04.710Z,19.31
2024-02-15T23:18:09.920Z,19.45
2024-02-15T23:23:14.420Z,19.47
2024-02-15T23:28:16.534Z,19.50
2024-02-15T23:33:21.258Z,19.45
2024-02-15T23:38:41.996Z,19.41
2024-02-15T23:43:45.132Z,19.48
2024-02-15T23:48:53.533Z,19.48
2024-02-15T23:53:55.717Z,19.55
2024-02-15T23:58:58.161Z,19.60
